Airfield :
LOGIN :

Register | Disclaimer

   EN    FR    IT 

 










Legend :    VFR   Marginal VFR   IFR   Intensive IFR   Very Intensive IFR
Visi :
Ceiling :
>= 8 km
>= 3000ft
5 to 8 km
1000 to 3000 ft
1500m to 5 km
500 to 1000 ft
800 to 1500m
200 to 500 ft
< 800m
< 200 ft
Symbols :   Thunderstorms  Fog  Heavy snow  Heavy precipitations  Wind > 20 kt
SIGMETs :     Misc.  Thunderstorms  Icing  Turbulence  Mountain Waves  Volcanic Ashes






- Airport Elevation : 128 ft


ETND - Diepholz

CURRENT METAR :
  • 281334Z 25022G35KT 8000 -SHRA FEW007 BKN015TCU 05/03 Q0990 WHT BLU TEMPO GRN

EXPIRED METARs :
  • 281220Z 23020KT 9999 -SHRA FEW013 BKN018TCU 06/03 Q0988 WHT BLU TEMPO GRN
  • 281120Z 24017KT 9999 -SHRA FEW010 BKN015TCU 05/03 Q0988 WHT BLU TEMPO GRN
  • 281109Z 23016KT 8000 -SHRA FEW010 BKN013TCU 05/03 Q0988 GRN BLU TEMPO GRN
  • 281051Z 23018KT 6000 -SHRA FEW010 BKN013TCU 05/04 Q0988 GRN BLU TEMPO GRN

TAF TAF ETND
Valid from the 28 at 12:00 until the 28 at 21:00 UTC


281100Z 2812/2821 24015G25KT 9999 NSW SCT012 BKN030
TEMPO 2812/2821 25018G30KT 4000 SHRA BKN010 BKN020CB
PROB30 2815/2819 26020G35KT 3000 TSRAGS BKN005 BKN015CB BY ETGL



MET'MAP, your aeronautical weather chart ! - Copyright ORBIFLY December 2007 - Disclaimer

ORBIFLY MET'MAP TEAM :

Programming & Development : Alexandra Zaïnal
Concept & original design : Baudouin d'Aumeries
Assistance for programming : Marc-Olivier Méhu
Technical & hardware support : Manuel Goepfert

Contact : metmap@orbifly.com




SOURCES & CREDITS :

   NOAA